• Join FlightAware (Why Join?)
  • Login
  • US Flag 
03:55AM EST


 

Airport Tracker/Info


-or-


 

Live Flight TrackerFlight Track Log ✈ RPA4907 ✈ 06-Jul-2013 ✈ KBWI - KEWR

Flight Track Log - Related Links

Times and Time Zones

All times are in EDT time to prevent confusion due to time zone crossing. See the RPA4907 flight status page for this flight to view local times or setup timezone preferences in your user account.

Time Position Orientation Groundspeed Altitude Reporting Facility
EDT Latitude Longitude Course Direction KTS MPH feet Rate Location/Type
02:20PM 39.2000 -76.7167 43° Northeast 213 245 2,400  Level Potomac TRACON
02:21PM 39.2500 -76.6833 27° Northeast 231 266 4,700 2,340 Climbing Potomac TRACON
02:22PM 39.2333 -76.5833 102° East 225 259 7,400 2,220 Climbing Potomac TRACON
02:23PM 39.2333 -76.5167 90° East 232 267 9,200 1,800 Climbing Potomac TRACON
02:24PM 39.3576 -75.9662 42° Northeast  Level FlightAware Approximate
02:24PM 39.2500 -76.4333 75° East 240 276 11,000  Level Potomac TRACON
02:25PM 39.4362 -75.8733 43° Northeast  Level FlightAware Approximate
02:25PM 39.2667 -76.3500 75° East 301 346 11,000  Level Potomac TRACON
02:26PM 39.3167 -76.2333 61° Northeast 343 395 11,000  Level Potomac TRACON
02:28PM 39.4000 -76.0333 62° Northeast 342 394 11,000  Level Philadelphia TRACON
02:28PM 39.4500 -75.9333 57° Northeast 347 399 11,000  Level Philadelphia TRACON
02:30PM 39.5000 -75.8167 61° Northeast 347 399 11,000  Level Philadelphia TRACON
02:30PM 39.5667 -75.7500 38° Northeast 345 397 11,000  Level Philadelphia TRACON
02:31PM 39.6333 -75.6667 44° Northeast 346 398 11,000  Level Philadelphia TRACON
02:32PM 39.7000 -75.5667 49° Northeast 350 403 11,000  Level Philadelphia TRACON
02:33PM 39.7333 -75.4333 72° East 350 403 11,000 -300 Level Philadelphia TRACON
02:34PM 39.7667 -75.3333 67° East 348 400 10,500 -480 Descending Philadelphia TRACON
02:36PM 39.8000 -75.2000 72° East 351 404 10,000 -240 Descending Philadelphia TRACON
02:37PM 39.8333 -75.0667 72° East 347 399 10,000 -60 Level Philadelphia TRACON
02:38PM 39.8667 -74.9667 66° East 318 366 9,900 -600 Descending Philadelphia TRACON
02:39PM 39.9333 -74.8833 44° Northeast 305 351 8,900 -1,020 Descending Philadelphia TRACON
02:39PM 39.9667 -74.8333 49° Northeast 297 342 8,200 -1,020 Descending New York TRACON
02:40PM 40.0167 -74.7667 46° Northeast 293 337 7,200 -600 Descending New York TRACON
02:41PM 40.0667 -74.6833 52° Northeast 291 335 7,100 -60 Descending New York TRACON
02:42PM 40.1500 -74.6500 17° North 279 321 7,100  Level New York TRACON
02:43PM 40.2167 -74.6333 11° North 281 323 7,100 -300 Level New York TRACON
02:44PM 40.3000 -74.6000 17° North 279 321 6,600 -540 Descending New York TRACON
02:45PM 40.3833 -74.5833 North 273 314 6,100 -300 Descending New York TRACON
02:46PM 40.4500 -74.5667 11° North 278 320 6,100  Level New York TRACON
02:47PM 40.5167 -74.5500 11° North 281 323 6,100  Level New York TRACON
02:48PM 40.5833 -74.5333 11° North 276 318 6,100  Level New York TRACON
02:49PM 40.6667 -74.5167 North 278 320 6,100  Level New York TRACON
02:50PM 40.7333 -74.4833 21° North 279 321 6,100  Level New York TRACON
02:51PM 40.8167 -74.4667 North 270 311 6,100  Level New York TRACON
02:52PM 40.8833 -74.4333 21° North 281 323 6,100 -180 Level New York TRACON
02:53PM 40.9333 -74.3500 52° Northeast 289 333 5,800 -900 Descending New York TRACON
02:54PM 40.9833 -74.2667 52° Northeast 285 328 4,300 -840 Descending New York TRACON
02:55PM 40.9500 -74.1833 118° Southeast 246 283 4,100 -360 Descending New York TRACON
02:56PM 40.9167 -74.1333 131° Southeast 201 231 3,600 -540 Descending New York TRACON
02:57PM 40.8667 -74.0833 143° Southeast 196 226 3,100 -480 Descending New York TRACON
02:58PM 40.8167 -74.0833 180° South 201 231 2,700 -720 Descending New York TRACON
02:59PM 40.7833 -74.1167 217° Southwest 184 212 1,800 -900 Descending New York TRACON